createdAt,value
2023-02-24T00:00:30.936Z,89.20
2023-02-24T00:02:59.837Z,90.78
2023-02-24T00:05:27.789Z,95.93
2023-02-24T00:07:55.501Z,99.38
2023-02-24T00:10:23.281Z,101.20
2023-02-24T00:12:51.046Z,97.65
2023-02-24T00:15:20.615Z,90.25
2023-02-24T00:17:48.477Z,94.13
2023-02-24T00:20:16.831Z,95.70
2023-02-24T00:22:45.497Z,95.20
2023-02-24T00:25:14.575Z,100.45
2023-02-24T00:27:42.693Z,96.20
2023-02-24T00:30:11.988Z,96.47
2023-02-24T00:32:40.094Z,83.72
2023-02-24T00:35:09.225Z,84.68
2023-02-24T00:37:37.249Z,88.57
2023-02-24T00:40:12.328Z,93.93
2023-02-24T00:42:40.101Z,93.68
2023-02-24T00:45:10.357Z,97.45
2023-02-24T00:47:40.161Z,95.47
2023-02-24T00:50:09.302Z,98.78
2023-02-24T00:52:37.163Z,95.28
2023-02-24T00:55:14.675Z,90.10
2023-02-24T00:57:42.581Z,82.82
2023-02-24T01:00:15.308Z,88.57
2023-02-24T01:02:44.903Z,90.57
2023-02-24T01:05:13.334Z,84.72
2023-02-24T01:07:41.153Z,92.68
2023-02-24T01:10:12.433Z,87.97
2023-02-24T01:12:49.933Z,92.80
2023-02-24T01:15:19.632Z,100.28
2023-02-24T01:17:47.834Z,93.97
2023-02-24T01:20:19.105Z,97.80
2023-02-24T01:22:48.537Z,91.80
2023-02-24T01:25:17.701Z,83.13
2023-02-24T01:27:45.842Z,83.72
2023-02-24T01:30:16.102Z,95.93
2023-02-24T01:32:44.946Z,100.10
2023-02-24T01:35:14.526Z,106.63
2023-02-24T01:37:43.541Z,99.07
2023-02-24T01:40:18.293Z,100.78
2023-02-24T01:42:47.898Z,93.50
2023-02-24T01:45:17.958Z,94.95
2023-02-24T01:47:47.469Z,87.93
2023-02-24T01:50:17.511Z,92.80
2023-02-24T01:52:47.543Z,94.57
2023-02-24T01:55:20.250Z,84.85
2023-02-24T01:57:49.317Z,88.90
2023-02-24T02:00:38.152Z,102.75
2023-02-24T02:03:09.878Z,86.20
2023-02-24T02:05:39.178Z,91.72
2023-02-24T02:08:09.215Z,91.22
2023-02-24T02:10:40.375Z,92.88
2023-02-24T02:13:08.278Z,82.57
2023-02-24T02:15:38.405Z,86.35
2023-02-24T02:18:12.058Z,82.40
2023-02-24T02:20:40.424Z,82.65
2023-02-24T02:23:15.803Z,71.95
2023-02-24T02:25:43.792Z,69.70
2023-02-24T02:28:21.209Z,84.43
2023-02-24T02:30:49.240Z,84.95
2023-02-24T02:33:27.690Z,81.93
2023-02-24T02:36:07.271Z,91.53
2023-02-24T02:38:38.858Z,87.57
2023-02-24T02:41:25.493Z,85.22
2023-02-24T02:43:59.405Z,83.85
2023-02-24T02:46:35.852Z,90.60
2023-02-24T02:49:24.620Z,88.43
2023-02-24T02:51:53.903Z,86.25
2023-02-24T02:54:30.909Z,85.60
2023-02-24T02:57:01.701Z,81.78
2023-02-24T02:59:31.944Z,85.18
2023-02-24T03:02:11.909Z,89.00
2023-02-24T03:04:42.605Z,88.43
2023-02-24T03:07:11.885Z,87.85
2023-02-24T03:09:42.522Z,90.13
2023-02-24T03:12:13.305Z,87.32
2023-02-24T03:14:44.407Z,77.70
2023-02-24T03:17:17.431Z,69.95
2023-02-24T03:19:49.980Z,77.15
2023-02-24T03:22:23.856Z,79.18
2023-02-24T03:24:52.840Z,80.03
2023-02-24T03:27:30.656Z,85.25
2023-02-24T03:30:09.874Z,91.57
2023-02-24T03:32:44.116Z,87.28
2023-02-24T03:35:15.173Z,94.40
2023-02-24T03:37:43.423Z,72.43
2023-02-24T03:40:14.772Z,81.97
2023-02-24T03:42:45.762Z,81.82
2023-02-24T03:45:13.761Z,83.60
2023-02-24T03:47:42.477Z,83.75
2023-02-24T03:50:14.683Z,79.07
2023-02-24T03:52:47.441Z,81.82
2023-02-24T03:55:21.953Z,87.40
2023-02-24T03:58:04.443Z,83.57
2023-02-24T04:00:37.094Z,87.70
2023-02-24T04:03:25.642Z,79.38
2023-02-24T04:06:14.838Z,88.47
2023-02-24T04:08:45.561Z,82.00
2023-02-24T04:11:18.066Z,81.43
2023-02-24T04:13:48.127Z,63.60
2023-02-24T04:16:29.530Z,82.00
2023-02-24T04:18:59.605Z,98.38
2023-02-24T04:21:32.278Z,91.25
2023-02-24T04:24:06.294Z,100.53
2023-02-24T04:26:36.671Z,100.72
2023-02-24T04:29:04.971Z,101.30
2023-02-24T04:31:34.544Z,100.05
2023-02-24T04:34:02.912Z,100.93
2023-02-24T04:36:38.464Z,97.88
2023-02-24T04:39:07.827Z,96.78
2023-02-24T04:41:36.215Z,94.30
2023-02-24T04:44:05.125Z,93.47
2023-02-24T04:46:32.996Z,94.80
2023-02-24T04:49:02.305Z,87.07
2023-02-24T04:51:32.610Z,88.47
2023-02-24T04:54:00.696Z,76.97
2023-02-24T04:56:29.044Z,78.55
2023-02-24T04:58:57.024Z,81.10
2023-02-24T05:01:24.841Z,81.47
2023-02-24T05:03:53.011Z,92.50
2023-02-24T05:06:20.883Z,85.88
2023-02-24T05:08:48.884Z,82.95
2023-02-24T05:11:18.345Z,75.35
2023-02-24T05:13:47.175Z,77.97
2023-02-24T05:16:16.422Z,87.13
2023-02-24T05:18:44.915Z,93.40
2023-02-24T05:21:32.377Z,92.47
2023-02-24T05:24:07.050Z,97.78
2023-02-24T05:26:37.113Z,97.72
2023-02-24T05:29:05.997Z,95.40
2023-02-24T05:31:34.570Z,99.95
2023-02-24T05:34:04.173Z,102.53
2023-02-24T05:36:39.564Z,97.82
2023-02-24T05:39:08.101Z,101.45
2023-02-24T05:41:38.221Z,110.88
2023-02-24T05:44:11.562Z,103.20
2023-02-24T05:46:40.903Z,107.57
2023-02-24T05:49:23.813Z,97.45
2023-02-24T05:51:56.166Z,104.03
2023-02-24T05:54:31.357Z,98.97
2023-02-24T05:57:03.502Z,95.07
2023-02-24T05:59:33.208Z,99.25
2023-02-24T06:02:07.232Z,97.95
2023-02-24T06:04:39.533Z,93.55
2023-02-24T06:07:19.416Z,93.60
2023-02-24T06:09:50.227Z,95.63
2023-02-24T06:12:19.309Z,104.47
2023-02-24T06:14:47.683Z,102.72
2023-02-24T06:17:19.289Z,101.80
2023-02-24T06:19:52.182Z,115.25
2023-02-24T06:22:24.951Z,105.47
2023-02-24T06:24:57.338Z,99.95
2023-02-24T06:27:28.969Z,91.32
2023-02-24T06:29:57.919Z,98.88
2023-02-24T06:32:27.109Z,89.63
2023-02-24T06:34:55.407Z,97.63
2023-02-24T06:37:23.575Z,94.80
2023-02-24T06:39:51.408Z,95.00
2023-02-24T06:42:20.007Z,99.55
2023-02-24T06:44:47.931Z,94.13
2023-02-24T06:47:18.135Z,93.90
2023-02-24T06:49:46.340Z,96.15
2023-02-24T06:52:19.084Z,100.18
2023-02-24T06:54:48.609Z,102.40
2023-02-24T06:57:18.226Z,88.15
2023-02-24T06:59:46.415Z,102.00
2023-02-24T07:02:17.752Z,103.65
2023-02-24T07:04:45.637Z,101.55
2023-02-24T07:07:17.625Z,96.22
2023-02-24T07:09:45.714Z,96.25
2023-02-24T07:12:15.712Z,100.40
2023-02-24T07:14:44.147Z,168.95
2023-02-24T07:17:14.906Z,109.55
2023-02-24T07:19:42.816Z,102.07
2023-02-24T07:22:10.793Z,104.82
2023-02-24T07:24:46.415Z,99.50
2023-02-24T07:27:22.688Z,102.85
2023-02-24T07:29:53.402Z,109.43
2023-02-24T07:32:25.667Z,111.40
2023-02-24T07:34:53.612Z,107.65
2023-02-24T07:37:23.811Z,104.63
2023-02-24T07:39:52.152Z,101.63
2023-02-24T07:42:20.116Z,109.25
2023-02-24T07:44:52.356Z,111.55
2023-02-24T07:47:23.108Z,103.78
2023-02-24T07:49:51.342Z,108.03
2023-02-24T07:52:19.291Z,102.95
2023-02-24T07:54:47.386Z,101.78
2023-02-24T07:57:15.418Z,105.43
2023-02-24T07:59:48.062Z,104.32
2023-02-24T08:02:19.497Z,110.25
2023-02-24T08:04:51.786Z,105.40
2023-02-24T08:07:25.185Z,105.13
2023-02-24T08:10:10.523Z,101.40
2023-02-24T08:12:43.152Z,101.82
2023-02-24T08:15:24.734Z,108.32
2023-02-24T08:17:59.942Z,137.65
2023-02-24T08:20:30.307Z,106.18
2023-02-24T08:22:58.336Z,119.47
2023-02-24T08:25:35.990Z,117.63
2023-02-24T08:28:09.151Z,117.82
2023-02-24T08:30:39.972Z,112.10
2023-02-24T08:33:09.867Z,107.72
2023-02-24T08:35:45.302Z,106.60
2023-02-24T08:38:18.399Z,116.68
2023-02-24T08:40:54.549Z,116.90
2023-02-24T08:43:29.455Z,109.80
2023-02-24T08:45:57.231Z,126.30
2023-02-24T08:48:26.510Z,125.10
2023-02-24T08:50:55.916Z,121.80
2023-02-24T08:53:29.707Z,129.45
2023-02-24T08:55:58.212Z,128.93
2023-02-24T08:58:29.588Z,127.10
2023-02-24T09:00:59.494Z,135.35
2023-02-24T09:03:28.631Z,132.98
2023-02-24T09:06:00.765Z,117.25
2023-02-24T09:08:32.869Z,121.18
2023-02-24T09:11:01.725Z,144.45
2023-02-24T09:13:33.252Z,199.40
2023-02-24T09:16:02.348Z,136.43
2023-02-24T09:18:30.857Z,128.73
2023-02-24T09:21:19.612Z,121.55
2023-02-24T09:23:47.793Z,131.23
2023-02-24T09:26:15.619Z,135.80
2023-02-24T09:28:55.085Z,133.15
2023-02-24T09:31:41.079Z,135.70
2023-02-24T09:34:18.821Z,123.07
2023-02-24T09:37:01.994Z,131.25
2023-02-24T09:42:07.827Z,135.82
2023-02-24T09:44:35.595Z,124.80
2023-02-24T09:47:51.708Z,123.13
2023-02-24T09:50:55.492Z,121.38
2023-02-24T09:53:18.900Z,140.55
2023-02-24T09:56:07.454Z,124.57
2023-02-24T09:58:44.025Z,130.10
2023-02-24T10:01:33.762Z,162.68
2023-02-24T10:04:18.544Z,139.57
2023-02-24T10:06:52.253Z,131.90
2023-02-24T10:09:23.607Z,133.77
2023-02-24T10:11:55.796Z,124.38
2023-02-24T10:14:25.595Z,129.68
2023-02-24T10:17:20.682Z,136.00
2023-02-24T10:20:14.105Z,128.55
2023-02-24T10:22:51.255Z,129.95
2023-02-24T10:25:36.393Z,124.32
2023-02-24T10:28:13.940Z,121.50
2023-02-24T10:30:47.260Z,121.40
2023-02-24T10:33:25.638Z,162.32
2023-02-24T10:36:09.302Z,111.70
2023-02-24T10:38:38.267Z,122.45
2023-02-24T10:41:06.278Z,118.93
2023-02-24T10:43:45.713Z,125.88
2023-02-24T10:46:38.689Z,123.03
2023-02-24T10:49:11.904Z,118.35
2023-02-24T10:51:45.275Z,124.72
2023-02-24T10:55:05.193Z,117.38
2023-02-24T10:57:47.481Z,118.63
2023-02-24T11:00:52.055Z,114.85
2023-02-24T11:03:41.645Z,114.25
2023-02-24T11:06:52.689Z,114.60
2023-02-24T11:09:28.287Z,98.97
2023-02-24T11:12:15.598Z,95.97
2023-02-24T11:15:11.520Z,95.43
2023-02-24T11:17:46.790Z,94.03
2023-02-24T11:20:49.399Z,98.22
2023-02-24T11:23:20.217Z,95.93
2023-02-24T11:25:49.989Z,90.43
2023-02-24T11:28:38.233Z,87.95
2023-02-24T11:31:14.649Z,90.45
2023-02-24T11:33:45.882Z,126.05
2023-02-24T11:36:33.323Z,97.38
2023-02-24T11:39:20.473Z,91.50
2023-02-24T11:41:53.309Z,93.93
2023-02-24T11:44:21.179Z,113.95
2023-02-24T11:46:57.896Z,96.10
2023-02-24T11:49:25.958Z,97.07
2023-02-24T11:51:53.924Z,93.25
2023-02-24T11:54:23.410Z,94.68
2023-02-24T11:56:54.152Z,95.28
2023-02-24T11:59:40.517Z,93.82
2023-02-24T12:02:14.461Z,97.07
2023-02-24T12:04:46.947Z,91.18
2023-02-24T12:07:35.659Z,99.03
2023-02-24T12:10:17.234Z,97.43
2023-02-24T12:12:49.869Z,97.20
2023-02-24T12:15:26.267Z,97.28
2023-02-24T12:17:58.268Z,89.55
2023-02-24T12:20:45.033Z,100.43
2023-02-24T12:23:34.232Z,97.63
2023-02-24T12:26:09.056Z,88.78
2023-02-24T12:28:53.950Z,88.18
2023-02-24T12:32:00.692Z,82.38
2023-02-24T12:34:47.743Z,83.90
2023-02-24T12:37:27.607Z,90.72
2023-02-24T12:39:56.543Z,82.65
2023-02-24T12:42:29.390Z,79.55
2023-02-24T12:45:13.289Z,81.80
2023-02-24T12:47:41.392Z,78.57
2023-02-24T12:50:27.843Z,82.43
2023-02-24T12:53:02.137Z,79.35
2023-02-24T12:55:34.162Z,78.40
2023-02-24T12:58:22.452Z,77.65
2023-02-24T13:01:02.752Z,71.82
2023-02-24T13:03:33.893Z,72.95
2023-02-24T13:06:20.561Z,70.45
2023-02-24T13:08:51.603Z,68.78
2023-02-24T13:11:27.579Z,70.95
2023-02-24T13:14:25.004Z,71.45
2023-02-24T13:17:03.753Z,68.93
2023-02-24T13:19:32.167Z,76.50
2023-02-24T13:22:06.901Z,69.93
2023-02-24T13:24:35.396Z,75.25
2023-02-24T13:27:22.364Z,67.40
2023-02-24T13:29:50.239Z,71.60
2023-02-24T13:32:26.375Z,74.45
2023-02-24T13:34:54.239Z,75.38
2023-02-24T13:37:48.523Z,71.35
2023-02-24T13:40:19.357Z,75.82
2023-02-24T13:42:59.671Z,107.07
2023-02-24T13:45:34.957Z,98.07
2023-02-24T13:48:09.398Z,75.95
2023-02-24T13:50:41.850Z,70.63
2023-02-24T13:53:12.662Z,65.73
2023-02-24T13:55:55.896Z,66.53
2023-02-24T13:58:24.163Z,67.75
2023-02-24T14:00:57.656Z,65.38
2023-02-24T14:03:27.786Z,68.72
2023-02-24T14:05:57.607Z,65.53
2023-02-24T14:08:33.860Z,66.20
2023-02-24T14:11:04.014Z,72.53
2023-02-24T14:13:34.429Z,62.45
2023-02-24T14:16:06.021Z,71.22
2023-02-24T14:18:34.151Z,67.20
2023-02-24T14:21:03.085Z,74.30
2023-02-24T14:23:34.842Z,65.80
2023-02-24T14:26:03.948Z,70.38
2023-02-24T14:28:33.430Z,67.30
2023-02-24T14:31:04.232Z,69.70
2023-02-24T14:33:36.405Z,66.60
2023-02-24T14:36:14.267Z,66.40
2023-02-24T14:38:42.599Z,62.42
2023-02-24T14:41:37.407Z,63.42
2023-02-24T14:44:24.283Z,63.90
2023-02-24T14:46:53.416Z,59.03
2023-02-24T14:49:23.988Z,62.25
2023-02-24T14:51:55.381Z,65.80
2023-02-24T14:54:28.694Z,65.97
2023-02-24T14:59:24.276Z,65.28
2023-02-24T15:01:54.847Z,65.60
2023-02-24T15:04:31.755Z,61.90
2023-02-24T15:06:59.859Z,61.97
2023-02-24T15:09:35.354Z,64.70
2023-02-24T15:12:22.123Z,68.90
2023-02-24T15:14:51.945Z,58.33
2023-02-24T15:17:21.538Z,67.70
2023-02-24T15:19:57.871Z,62.60
2023-02-24T15:22:29.185Z,67.85
2023-02-24T15:25:17.404Z,92.20
2023-02-24T15:28:02.046Z,79.28
2023-02-24T15:30:33.069Z,70.78
2023-02-24T15:33:07.238Z,73.50
2023-02-24T15:35:37.699Z,71.25
2023-02-24T15:38:05.792Z,72.93
2023-02-24T15:40:33.695Z,69.72
2023-02-24T15:43:10.873Z,73.28
2023-02-24T15:45:42.964Z,70.22
2023-02-24T15:48:21.556Z,65.45
2023-02-24T15:50:52.502Z,69.40
2023-02-24T15:53:28.780Z,71.00
2023-02-24T15:56:00.267Z,70.20
2023-02-24T15:58:40.338Z,72.82
2023-02-24T16:01:27.639Z,68.10
2023-02-24T16:03:58.646Z,65.45
2023-02-24T16:06:28.496Z,70.40
2023-02-24T16:08:57.190Z,69.30
2023-02-24T16:11:29.655Z,70.35
2023-02-24T16:14:00.756Z,68.60
2023-02-24T16:16:28.704Z,71.88
2023-02-24T16:18:57.010Z,72.78
2023-02-24T16:21:24.848Z,69.68
2023-02-24T16:23:52.735Z,65.18
2023-02-24T16:26:40.856Z,70.78
2023-02-24T16:29:11.733Z,66.07
2023-02-24T16:31:40.210Z,66.15
2023-02-24T16:34:08.995Z,71.47
2023-02-24T16:36:36.876Z,81.05
2023-02-24T16:39:05.210Z,69.93
2023-02-24T16:41:33.438Z,67.93
2023-02-24T16:44:01.345Z,71.85
2023-02-24T16:46:33.668Z,81.00
2023-02-24T16:49:01.568Z,74.60
2023-02-24T16:51:31.275Z,72.75
2023-02-24T16:53:59.067Z,71.18
2023-02-24T16:56:26.993Z,74.82
2023-02-24T16:58:55.039Z,65.82
2023-02-24T17:01:23.058Z,102.47
2023-02-24T17:03:54.132Z,62.35
2023-02-24T17:06:23.886Z,61.28
2023-02-24T17:08:52.486Z,61.20
2023-02-24T17:11:21.897Z,56.45
2023-02-24T17:13:49.870Z,59.70
2023-02-24T17:16:17.812Z,69.07
2023-02-24T17:18:45.857Z,78.45
2023-02-24T17:21:14.900Z,175.20
2023-02-24T17:23:42.783Z,72.97
2023-02-24T17:26:12.753Z,67.18
2023-02-24T17:28:40.686Z,64.57
2023-02-24T17:31:08.830Z,65.45
2023-02-24T17:33:36.901Z,66.03
2023-02-24T17:36:04.699Z,72.35
2023-02-24T17:38:34.758Z,68.13
2023-02-24T17:41:02.680Z,70.43
2023-02-24T17:43:30.580Z,89.65
2023-02-24T17:45:58.702Z,103.85
2023-02-24T17:48:26.751Z,105.15
2023-02-24T17:50:54.642Z,95.38
2023-02-24T17:53:23.503Z,69.97
2023-02-24T17:56:02.356Z,107.07
2023-02-24T17:58:31.091Z,98.63
2023-02-24T18:00:59.074Z,93.32
2023-02-24T18:03:26.916Z,68.28
2023-02-24T18:06:08.672Z,73.07
2023-02-24T18:08:37.586Z,67.20
2023-02-24T18:11:05.997Z,70.38
2023-02-24T18:13:34.238Z,82.57
2023-02-24T18:16:02.862Z,228.77
2023-02-24T18:18:30.789Z,126.85
2023-02-24T18:21:05.460Z,138.60
2023-02-24T18:23:34.395Z,75.97
2023-02-24T18:26:03.537Z,73.93
2023-02-24T18:28:32.125Z,86.40
2023-02-24T18:31:03.455Z,75.45
2023-02-24T18:33:31.394Z,83.70
2023-02-24T18:36:02.113Z,75.93
2023-02-24T18:38:30.341Z,72.95
2023-02-24T18:41:02.538Z,77.15
2023-02-24T18:43:31.064Z,80.43
2023-02-24T18:46:00.532Z,75.97
2023-02-24T18:48:30.456Z,68.07
2023-02-24T18:50:59.770Z,76.25
2023-02-24T18:53:29.762Z,81.13
2023-02-24T18:56:05.642Z,112.03
2023-02-24T18:58:33.736Z,90.70
2023-02-24T19:01:02.190Z,133.15
2023-02-24T19:03:30.631Z,89.65
2023-02-24T19:05:58.560Z,89.70
2023-02-24T19:08:27.254Z,85.22
2023-02-24T19:10:55.307Z,90.82
2023-02-24T19:13:24.137Z,81.93
2023-02-24T19:15:52.384Z,76.82
2023-02-24T19:18:20.402Z,77.13
2023-02-24T19:20:48.662Z,81.82
2023-02-24T19:23:16.427Z,78.53
2023-02-24T19:25:44.432Z,84.35
2023-02-24T19:28:13.224Z,83.78
2023-02-24T19:30:41.510Z,95.00
2023-02-24T19:33:09.810Z,93.32
2023-02-24T19:35:41.943Z,96.80
2023-02-24T19:38:13.295Z,86.55
2023-02-24T19:40:42.513Z,87.40
2023-02-24T19:43:10.494Z,79.43
2023-02-24T19:45:42.628Z,85.30
2023-02-24T19:48:11.200Z,86.93
2023-02-24T19:50:42.595Z,90.10
2023-02-24T19:53:10.650Z,87.35
2023-02-24T19:55:38.921Z,91.35
2023-02-24T19:58:07.218Z,96.95
2023-02-24T20:00:35.066Z,122.07
2023-02-24T20:03:03.146Z,104.53
2023-02-24T20:05:31.270Z,116.57
2023-02-24T20:07:59.506Z,115.20
2023-02-24T20:10:27.332Z,106.53
2023-02-24T20:12:55.549Z,103.18
2023-02-24T20:15:23.359Z,99.53
2023-02-24T20:17:51.294Z,90.90
2023-02-24T20:20:19.240Z,83.25
2023-02-24T20:22:47.151Z,87.90
2023-02-24T20:25:15.460Z,87.05
2023-02-24T20:27:43.491Z,87.20
2023-02-24T20:30:11.792Z,84.47
2023-02-24T20:32:39.920Z,92.45
2023-02-24T20:35:08.680Z,84.03
2023-02-24T20:37:37.562Z,89.70
2023-02-24T20:40:05.959Z,89.80
2023-02-24T20:42:33.826Z,84.55
2023-02-24T20:45:01.656Z,90.93
2023-02-24T20:47:34.502Z,83.65
2023-02-24T20:50:03.294Z,91.05
2023-02-24T20:52:31.303Z,81.85
2023-02-24T20:55:00.160Z,88.07
2023-02-24T20:57:31.138Z,85.80
2023-02-24T21:00:04.542Z,86.57
2023-02-24T21:02:32.923Z,90.65
2023-02-24T21:05:01.854Z,87.95
2023-02-24T21:07:31.942Z,86.78
2023-02-24T21:10:00.993Z,86.97
2023-02-24T21:12:28.766Z,94.47
2023-02-24T21:14:56.832Z,91.75
2023-02-24T21:17:28.282Z,89.95
2023-02-24T21:19:57.009Z,99.67
2023-02-24T21:22:24.922Z,213.05
2023-02-24T21:24:52.790Z,96.32
2023-02-24T21:27:21.108Z,87.63
2023-02-24T21:29:51.520Z,83.95
2023-02-24T21:32:20.772Z,94.35
2023-02-24T21:34:48.731Z,88.55
2023-02-24T21:37:20.707Z,88.85
2023-02-24T21:39:49.248Z,95.68
2023-02-24T21:42:17.206Z,85.18
2023-02-24T21:44:45.041Z,88.57
2023-02-24T21:47:13.035Z,91.00
2023-02-24T21:49:41.169Z,112.93
2023-02-24T21:52:11.695Z,87.97
2023-02-24T21:54:39.650Z,90.45
2023-02-24T21:57:07.544Z,89.22
2023-02-24T21:59:35.598Z,87.40
2023-02-24T22:02:03.462Z,85.65
2023-02-24T22:04:31.432Z,87.25
2023-02-24T22:06:59.371Z,96.93
2023-02-24T22:09:27.247Z,96.72
2023-02-24T22:11:55.088Z,91.25
2023-02-24T22:14:23.103Z,92.95
2023-02-24T22:16:51.073Z,96.20
2023-02-24T22:19:20.298Z,94.70
2023-02-24T22:21:48.148Z,97.38
2023-02-24T22:24:16.960Z,96.32
2023-02-24T22:26:45.652Z,95.28
2023-02-24T22:29:13.702Z,102.18
2023-02-24T22:31:43.921Z,101.03
2023-02-24T22:34:13.170Z,97.95
2023-02-24T22:36:41.395Z,92.38
2023-02-24T22:39:09.669Z,88.35
2023-02-24T22:41:38.297Z,96.97
2023-02-24T22:44:06.823Z,93.13
2023-02-24T22:46:36.377Z,91.85
2023-02-24T22:49:04.598Z,94.88
2023-02-24T22:51:32.649Z,98.85
2023-02-24T22:54:00.496Z,90.90
2023-02-24T22:56:29.183Z,94.75
2023-02-24T22:58:57.866Z,96.03
2023-02-24T23:01:27.475Z,99.25
2023-02-24T23:03:55.594Z,96.72
2023-02-24T23:06:26.051Z,106.32
2023-02-24T23:08:54.714Z,115.38
2023-02-24T23:11:30.467Z,120.80
2023-02-24T23:13:59.388Z,133.90
2023-02-24T23:16:29.531Z,128.38
2023-02-24T23:18:58.464Z,125.75
2023-02-24T23:21:27.662Z,126.68
2023-02-24T23:23:56.984Z,133.98
2023-02-24T23:26:35.651Z,134.32
2023-02-24T23:29:04.294Z,147.93
2023-02-24T23:31:33.436Z,145.70
2023-02-24T23:34:07.205Z,138.68
2023-02-24T23:36:36.417Z,143.48
2023-02-24T23:39:05.200Z,137.52
2023-02-24T23:41:34.242Z,131.63
2023-02-24T23:44:02.242Z,136.68
2023-02-24T23:46:30.094Z,139.70
2023-02-24T23:48:58.050Z,135.27
2023-02-24T23:51:27.993Z,122.75
2023-02-24T23:53:59.004Z,121.60
2023-02-24T23:56:27.902Z,122.70
2023-02-24T23:58:57.198Z,108.43
